»·PEaware :: AAL1694 KPHX-KLAX

AAL1694 :: KPHX-KLAX

FLIGHT INFORMATION

Flight Status: Arrived
Operator:
American Airlines
More flights by this operator :: More flights under this callsign
Pilot: Ben F. (2808)
Aircraft: MCDONNELL-DOUGLAS MD-82
(MD82)
More flights by this aircraft type
Origin: KPHX Phoenix Sky Harbor Intl
United States
Destination: KLAX Los Angeles Intl
United States
More flights between these airports :: More routes between these airports
Route: +IZZZO6 MESSI ESTWD HLYWD1
File this flight plan on PilotEdge
Remarks:
Altitude:
(Current/Filed)
32,000ft
Speed:
(Current/Filed)
460kts
Departed: 03-May-18 08:43 AM
Arrived: 03-May-18 09:41 AM
Distance/Time
Traveled:
321nm/0:58
Distance/Time
To Go:
Arrived

Flight Plot

Page will automatically refresh every two minutes.

Flight plan parsing failed; only flown route is shown


Map Options




Map Legend


Flown Route
Filed Route
Departure Airport
Arrival Airport
Navaid (VOR, NDB)
Fix

Horizontal Profiles

Position Reports

Time Latitude Longitude Heading Altitude Ground
Speed
03-May-18 08:23 33.437757 -111.997381 88 1144ft 0kts
03-May-18 08:24 33.437757 -111.997381 88 1144ft 0kts
03-May-18 08:25 33.437757 -111.997381 88 1144ft 0kts
03-May-18 08:26 33.437757 -111.997381 88 1144ft 0kts
03-May-18 08:27 33.437757 -111.997381 88 1144ft 0kts
03-May-18 08:28 33.437757 -111.997381 88 1144ft 0kts
03-May-18 08:29 33.437757 -111.997399 88 1144ft 1kts
03-May-18 08:30 33.437526 -111.998225 49 1144ft 2kts
03-May-18 08:31 33.437420 -111.998359 41 1144ft 0kts
03-May-18 08:32 33.437421 -111.998358 41 1144ft 0kts
03-May-18 08:33 33.437750 -111.998164 10 1144ft 3kts
03-May-18 08:34 33.438209 -111.998160 358 1144ft 0kts
03-May-18 08:35 33.439475 -111.998484 322 1144ft 13kts
03-May-18 08:36 33.439717 -112.004500 270 1144ft 21kts
03-May-18 08:37 33.439723 -112.009860 270 1144ft 18kts
03-May-18 08:38 33.439721 -112.015212 267 1144ft 20kts
03-May-18 08:39 33.439730 -112.023732 269 1144ft 23kts
03-May-18 08:40 33.439778 -112.029448 303 1144ft 6kts
03-May-18 08:41 33.440624 -112.029506 37 1144ft 7kts
03-May-18 08:42 33.440830 -112.010670 89 1146ft 151kts
03-May-18 08:43 33.439468 -111.955433 91 3525ft 173kts
03-May-18 08:44 33.434686 -111.882268 105 5678ft 246kts
03-May-18 08:45 33.378300 -111.845040 197 7933ft 260kts
03-May-18 08:46 33.341241 -111.907630 278 8390ft 260kts
03-May-18 08:47 33.362183 -111.996019 287 10533ft 305kts
03-May-18 08:48 33.381785 -112.102757 280 12754ft 339kts
03-May-18 08:49 33.397054 -112.215885 280 15372ft 350kts
03-May-18 08:50 33.413299 -112.332882 281 17818ft 361kts
03-May-18 08:51 33.430084 -112.453059 280 20085ft 372kts
03-May-18 08:52 33.447656 -112.577267 280 22052ft 383kts
03-May-18 08:53 33.454021 -112.706060 271 23775ft 394kts
03-May-18 08:54 33.462373 -112.836859 288 25280ft 398kts
03-May-18 08:55 33.509180 -112.958655 294 26524ft 406kts
03-May-18 08:56 33.553037 -113.084259 292 27584ft 413kts
03-May-18 08:57 33.597529 -113.211896 293 28524ft 418kts
03-May-18 08:58 33.642658 -113.341835 293 29414ft 420kts
03-May-18 08:59 33.687381 -113.471278 293 30407ft 419kts
03-May-18 09:00 33.731648 -113.599932 293 31492ft 414kts
03-May-18 09:01 33.776518 -113.730606 293 31800ft 426kts
03-May-18 09:02 33.821143 -113.862242 292 32210ft 423kts
03-May-18 09:03 33.865813 -113.994128 293 32206ft 424kts
03-May-18 09:04 33.908867 -114.126486 288 32205ft 425kts
03-May-18 09:06 33.933137 -114.266129 281 32204ft 427kts
03-May-18 09:07 33.955494 -114.406961 283 32201ft 427kts
03-May-18 09:08 33.979515 -114.546927 283 32200ft 428kts
03-May-18 09:09 34.002860 -114.687330 283 32204ft 428kts
03-May-18 09:10 34.025825 -114.829739 284 32204ft 432kts
03-May-18 09:11 34.049596 -114.971939 285 32207ft 434kts
03-May-18 09:12 34.073046 -115.114646 285 32215ft 435kts
03-May-18 09:13 34.096015 -115.258484 285 32221ft 435kts
03-May-18 09:14 34.118939 -115.402054 285 32229ft 436kts
03-May-18 09:15 34.142120 -115.546182 285 32239ft 437kts
03-May-18 09:16 34.163090 -115.690636 278 32254ft 441kts
03-May-18 09:17 34.153482 -115.839472 265 32271ft 449kts
03-May-18 09:18 34.135321 -115.988804 267 32280ft 448kts
03-May-18 09:19 34.120893 -116.137833 268 32289ft 447kts
03-May-18 09:20 34.106451 -116.286812 267 32278ft 449kts
03-May-18 09:21 34.090642 -116.436521 267 32263ft 449kts
03-May-18 09:22 34.074224 -116.584612 267 29870ft 442kts
03-May-18 09:23 34.060491 -116.727227 269 27270ft 426kts
03-May-18 09:24 34.047844 -116.866140 270 24689ft 398kts
03-May-18 09:25 34.032449 -116.998116 266 23372ft 392kts
03-May-18 09:26 34.015486 -117.127460 267 20842ft 382kts
03-May-18 09:27 34.000953 -117.251730 267 18573ft 368kts
03-May-18 09:28 33.987326 -117.370190 265 15457ft 347kts
03-May-18 09:29 33.974233 -117.483197 266 13150ft 325kts
03-May-18 09:30 33.988528 -117.583532 286 11725ft 293kts
03-May-18 09:31 34.006953 -117.678420 277 9867ft 290kts
03-May-18 09:32 34.000560 -117.779331 262 9039ft 311kts
03-May-18 09:33 33.989370 -117.881289 263 7694ft 292kts
03-May-18 09:34 33.980021 -117.973218 263 6736ft 271kts
03-May-18 09:35 33.970570 -118.062010 261 5632ft 260kts
03-May-18 09:36 33.961457 -118.143891 264 5004ft 240kts
03-May-18 09:37 33.952497 -118.223933 261 3852ft 233kts
03-May-18 09:38 33.946588 -118.293696 264 1468ft 194kts
03-May-18 09:39 33.940514 -118.351434 262 702ft 159kts
03-May-18 09:40 33.935775 -118.398216 263 136ft 96kts
03-May-18 09:41 33.935881 -118.406440 284 135ft 0kts
03-May-18 09:42 33.935885 -118.407994 272 135ft 13kts
03-May-18 09:43 33.937993 -118.409264 352 135ft 8kts
03-May-18 09:44 33.938932 -118.406519 82 135ft 11kts
03-May-18 09:45 33.940389 -118.406088 282 135ft 4kts

Navigation Log

Ident Type
Flight plan parsing failed, navigation log unavailable